sensor_id;sensor_type;location;lat;lon;timestamp;P1;durP1;ratioP1;P2;durP2;ratioP2
40993;SDS011;26722;43.212;27.932;2022-12-18T00:01:30;10.43;;;3.92;;
40993;SDS011;26722;43.212;27.932;2022-12-18T00:04:00;8.52;;;3.40;;
40993;SDS011;26722;43.212;27.932;2022-12-18T00:06:28;7.57;;;4.00;;
40993;SDS011;26722;43.212;27.932;2022-12-18T00:08:55;7.80;;;4.03;;
40993;SDS011;26722;43.212;27.932;2022-12-18T00:11:22;7.20;;;4.00;;
40993;SDS011;26722;43.212;27.932;2022-12-18T00:13:49;9.48;;;3.65;;
40993;SDS011;26722;43.212;27.932;2022-12-18T00:16:17;5.80;;;3.55;;
40993;SDS011;26722;43.212;27.932;2022-12-18T00:18:45;5.93;;;3.65;;
40993;SDS011;26722;43.212;27.932;2022-12-18T00:21:12;6.15;;;3.55;;
40993;SDS011;26722;43.212;27.932;2022-12-18T00:23:39;5.63;;;3.28;;
40993;SDS011;26722;43.212;27.932;2022-12-18T00:26:07;5.28;;;3.13;;
40993;SDS011;26722;43.212;27.932;2022-12-18T00:28:36;4.50;;;2.90;;
40993;SDS011;26722;43.212;27.932;2022-12-18T00:31:05;7.03;;;3.75;;
40993;SDS011;26722;43.212;27.932;2022-12-18T00:33:33;5.63;;;3.65;;
40993;SDS011;26722;43.212;27.932;2022-12-18T00:36:06;5.05;;;3.25;;
40993;SDS011;26722;43.212;27.932;2022-12-18T00:38:34;5.80;;;3.40;;
40993;SDS011;26722;43.212;27.932;2022-12-18T00:41:01;6.70;;;3.47;;
40993;SDS011;26722;43.212;27.932;2022-12-18T00:43:26;6.18;;;3.35;;
40993;SDS011;26722;43.212;27.932;2022-12-18T00:45:52;6.82;;;2.97;;
40993;SDS011;26722;43.212;27.932;2022-12-18T00:48:18;5.65;;;3.42;;
40993;SDS011;26722;43.212;27.932;2022-12-18T00:50:43;6.63;;;3.60;;
40993;SDS011;26722;43.212;27.932;2022-12-18T00:53:09;6.53;;;3.60;;
40993;SDS011;26722;43.212;27.932;2022-12-18T00:55:35;5.72;;;3.75;;
40993;SDS011;26722;43.212;27.932;2022-12-18T00:58:02;5.10;;;3.35;;
40993;SDS011;26722;43.212;27.932;2022-12-18T01:00:28;7.75;;;3.63;;
40993;SDS011;26722;43.212;27.932;2022-12-18T01:02:53;5.78;;;3.67;;
40993;SDS011;26722;43.212;27.932;2022-12-18T01:05:19;6.20;;;3.50;;
40993;SDS011;26722;43.212;27.932;2022-12-18T01:07:44;7.68;;;3.53;;
40993;SDS011;26722;43.212;27.932;2022-12-18T01:10:10;5.75;;;3.70;;
40993;SDS011;26722;43.212;27.932;2022-12-18T01:12:37;4.60;;;3.22;;
40993;SDS011;26722;43.212;27.932;2022-12-18T01:15:04;7.40;;;3.70;;
40993;SDS011;26722;43.212;27.932;2022-12-18T01:17:31;5.18;;;3.30;;
40993;SDS011;26722;43.212;27.932;2022-12-18T01:19:57;6.45;;;3.45;;
40993;SDS011;26722;43.212;27.932;2022-12-18T01:22:22;6.57;;;3.30;;
40993;SDS011;26722;43.212;27.932;2022-12-18T01:24:48;5.20;;;3.20;;
40993;SDS011;26722;43.212;27.932;2022-12-18T01:27:13;6.45;;;3.70;;
40993;SDS011;26722;43.212;27.932;2022-12-18T01:29:38;6.22;;;3.63;;
40993;SDS011;26722;43.212;27.932;2022-12-18T01:32:04;5.90;;;3.40;;
40993;SDS011;26722;43.212;27.932;2022-12-18T01:34:29;5.25;;;3.53;;
40993;SDS011;26722;43.212;27.932;2022-12-18T01:36:55;5.32;;;3.67;;
40993;SDS011;26722;43.212;27.932;2022-12-18T01:39:20;6.75;;;3.80;;
40993;SDS011;26722;43.212;27.932;2022-12-18T01:41:46;7.20;;;3.50;;
40993;SDS011;26722;43.212;27.932;2022-12-18T01:47:34;6.82;;;3.80;;
40993;SDS011;26722;43.212;27.932;2022-12-18T01:53:03;7.32;;;4.05;;
40993;SDS011;26722;43.212;27.932;2022-12-18T01:55:35;6.53;;;3.80;;
40993;SDS011;26722;43.212;27.932;2022-12-18T01:58:12;6.00;;;3.75;;
40993;SDS011;26722;43.212;27.932;2022-12-18T02:00:38;5.50;;;3.67;;
40993;SDS011;26722;43.212;27.932;2022-12-18T02:03:04;6.85;;;3.60;;
40993;SDS011;26722;43.212;27.932;2022-12-18T02:08:31;6.70;;;3.47;;
40993;SDS011;26722;43.212;27.932;2022-12-18T02:27:32;7.03;;;4.20;;
40993;SDS011;26722;43.212;27.932;2022-12-18T02:30:00;6.82;;;4.10;;
40993;SDS011;26722;43.212;27.932;2022-12-18T02:32:30;7.10;;;4.18;;
40993;SDS011;26722;43.212;27.932;2022-12-18T02:34:59;6.05;;;3.58;;
40993;SDS011;26722;43.212;27.932;2022-12-18T02:37:29;7.13;;;3.55;;
40993;SDS011;26722;43.212;27.932;2022-12-18T02:39:57;10.10;;;4.13;;
40993;SDS011;26722;43.212;27.932;2022-12-18T02:42:25;7.10;;;3.30;;
40993;SDS011;26722;43.212;27.932;2022-12-18T02:44:53;6.72;;;3.55;;
40993;SDS011;26722;43.212;27.932;2022-12-18T02:47:19;6.05;;;3.30;;
40993;SDS011;26722;43.212;27.932;2022-12-18T02:52:30;6.20;;;3.83;;
40993;SDS011;26722;43.212;27.932;2022-12-18T02:57:58;6.90;;;3.45;;
40993;SDS011;26722;43.212;27.932;2022-12-18T03:03:25;6.32;;;3.28;;
40993;SDS011;26722;43.212;27.932;2022-12-18T03:06:39;8.50;;;3.78;;
40993;SDS011;26722;43.212;27.932;2022-12-18T03:09:11;6.90;;;3.75;;
40993;SDS011;26722;43.212;27.932;2022-12-18T03:11:44;7.45;;;4.07;;
40993;SDS011;26722;43.212;27.932;2022-12-18T03:14:32;6.22;;;3.35;;
40993;SDS011;26722;43.212;27.932;2022-12-18T03:17:03;5.60;;;3.90;;
40993;SDS011;26722;43.212;27.932;2022-12-18T03:19:32;5.07;;;3.58;;
40993;SDS011;26722;43.212;27.932;2022-12-18T03:21:58;6.25;;;3.50;;
40993;SDS011;26722;43.212;27.932;2022-12-18T03:24:27;4.80;;;3.38;;
40993;SDS011;26722;43.212;27.932;2022-12-18T03:27:02;7.90;;;3.72;;
40993;SDS011;26722;43.212;27.932;2022-12-18T03:29:33;5.13;;;3.70;;
40993;SDS011;26722;43.212;27.932;2022-12-18T03:32:10;5.70;;;3.90;;
40993;SDS011;26722;43.212;27.932;2022-12-18T03:34:40;6.10;;;4.00;;
40993;SDS011;26722;43.212;27.932;2022-12-18T03:37:09;5.82;;;3.50;;
40993;SDS011;26722;43.212;27.932;2022-12-18T03:39:34;6.18;;;3.78;;
40993;SDS011;26722;43.212;27.932;2022-12-18T03:42:08;5.40;;;3.78;;
40993;SDS011;26722;43.212;27.932;2022-12-18T03:47:35;7.00;;;3.90;;
40993;SDS011;26722;43.212;27.932;2022-12-18T03:55:22;6.30;;;3.83;;
40993;SDS011;26722;43.212;27.932;2022-12-18T03:57:51;4.93;;;3.15;;
40993;SDS011;26722;43.212;27.932;2022-12-18T04:00:18;6.13;;;3.47;;
40993;SDS011;26722;43.212;27.932;2022-12-18T04:02:46;4.18;;;3.25;;
40993;SDS011;26722;43.212;27.932;2022-12-18T04:05:16;5.65;;;3.55;;
40993;SDS011;26722;43.212;27.932;2022-12-18T04:07:43;8.45;;;4.00;;
40993;SDS011;26722;43.212;27.932;2022-12-18T04:10:11;7.00;;;3.78;;
40993;SDS011;26722;43.212;27.932;2022-12-18T04:12:38;6.97;;;3.70;;
40993;SDS011;26722;43.212;27.932;2022-12-18T04:15:04;6.00;;;3.60;;
40993;SDS011;26722;43.212;27.932;2022-12-18T04:17:31;8.05;;;3.40;;
40993;SDS011;26722;43.212;27.932;2022-12-18T04:19:56;6.93;;;3.75;;
40993;SDS011;26722;43.212;27.932;2022-12-18T04:22:22;6.53;;;3.90;;
40993;SDS011;26722;43.212;27.932;2022-12-18T04:24:47;8.57;;;4.28;;
40993;SDS011;26722;43.212;27.932;2022-12-18T04:27:13;9.63;;;4.35;;
40993;SDS011;26722;43.212;27.932;2022-12-18T04:29:39;7.28;;;4.40;;
40993;SDS011;26722;43.212;27.932;2022-12-18T04:32:04;10.18;;;4.90;;
40993;SDS011;26722;43.212;27.932;2022-12-18T04:34:30;8.00;;;4.45;;
40993;SDS011;26722;43.212;27.932;2022-12-18T04:36:55;9.50;;;5.00;;
40993;SDS011;26722;43.212;27.932;2022-12-18T04:39:21;7.10;;;4.82;;
40993;SDS011;26722;43.212;27.932;2022-12-18T04:41:46;9.48;;;5.53;;
40993;SDS011;26722;43.212;27.932;2022-12-18T04:44:12;9.75;;;5.30;;
40993;SDS011;26722;43.212;27.932;2022-12-18T04:46:37;10.73;;;6.25;;
40993;SDS011;26722;43.212;27.932;2022-12-18T04:49:03;12.05;;;6.20;;
40993;SDS011;26722;43.212;27.932;2022-12-18T04:51:28;10.52;;;6.40;;
40993;SDS011;26722;43.212;27.932;2022-12-18T04:53:54;11.07;;;6.68;;
40993;SDS011;26722;43.212;27.932;2022-12-18T04:56:19;12.38;;;7.25;;
40993;SDS011;26722;43.212;27.932;2022-12-18T04:58:45;13.40;;;7.85;;
40993;SDS011;26722;43.212;27.932;2022-12-18T05:01:11;14.80;;;7.00;;
40993;SDS011;26722;43.212;27.932;2022-12-18T05:03:38;12.73;;;7.53;;
40993;SDS011;26722;43.212;27.932;2022-12-18T05:06:04;16.85;;;7.70;;
40993;SDS011;26722;43.212;27.932;2022-12-18T05:08:30;13.70;;;7.70;;
40993;SDS011;26722;43.212;27.932;2022-12-18T05:10:59;15.52;;;7.45;;
40993;SDS011;26722;43.212;27.932;2022-12-18T05:13:26;16.70;;;8.10;;
40993;SDS011;26722;43.212;27.932;2022-12-18T05:15:52;13.73;;;7.18;;
40993;SDS011;26722;43.212;27.932;2022-12-18T05:18:18;9.65;;;5.03;;
40993;SDS011;26722;43.212;27.932;2022-12-18T05:20:44;14.18;;;6.53;;
40993;SDS011;26722;43.212;27.932;2022-12-18T05:23:09;14.40;;;6.97;;
40993;SDS011;26722;43.212;27.932;2022-12-18T05:25:35;14.77;;;7.60;;
40993;SDS011;26722;43.212;27.932;2022-12-18T05:28:00;14.32;;;6.90;;
40993;SDS011;26722;43.212;27.932;2022-12-18T05:30:25;12.77;;;7.28;;
40993;SDS011;26722;43.212;27.932;2022-12-18T05:32:51;18.15;;;8.65;;
40993;SDS011;26722;43.212;27.932;2022-12-18T05:35:16;17.05;;;8.90;;
40993;SDS011;26722;43.212;27.932;2022-12-18T05:37:42;21.05;;;8.80;;
40993;SDS011;26722;43.212;27.932;2022-12-18T05:40:08;23.23;;;8.13;;
40993;SDS011;26722;43.212;27.932;2022-12-18T05:42:33;19.70;;;9.30;;
40993;SDS011;26722;43.212;27.932;2022-12-18T05:44:59;27.65;;;11.50;;
40993;SDS011;26722;43.212;27.932;2022-12-18T05:47:24;23.10;;;11.77;;
40993;SDS011;26722;43.212;27.932;2022-12-18T05:49:51;23.52;;;11.30;;
40993;SDS011;26722;43.212;27.932;2022-12-18T05:52:16;22.17;;;10.35;;
40993;SDS011;26722;43.212;27.932;2022-12-18T05:54:42;22.23;;;11.10;;
40993;SDS011;26722;43.212;27.932;2022-12-18T05:57:07;22.05;;;11.57;;
40993;SDS011;26722;43.212;27.932;2022-12-18T05:59:33;23.88;;;11.85;;
40993;SDS011;26722;43.212;27.932;2022-12-18T06:01:58;24.73;;;12.27;;
40993;SDS011;26722;43.212;27.932;2022-12-18T06:04:26;26.83;;;11.32;;
40993;SDS011;26722;43.212;27.932;2022-12-18T06:06:53;28.30;;;13.07;;
40993;SDS011;26722;43.212;27.932;2022-12-18T06:09:19;25.58;;;11.38;;
40993;SDS011;26722;43.212;27.932;2022-12-18T06:11:44;26.23;;;12.77;;
40993;SDS011;26722;43.212;27.932;2022-12-18T06:14:10;23.58;;;12.63;;
40993;SDS011;26722;43.212;27.932;2022-12-18T06:16:35;25.45;;;13.00;;
40993;SDS011;26722;43.212;27.932;2022-12-18T06:19:02;26.13;;;13.02;;
40993;SDS011;26722;43.212;27.932;2022-12-18T06:21:29;21.88;;;9.35;;
40993;SDS011;26722;43.212;27.932;2022-12-18T06:23:56;25.00;;;12.82;;
40993;SDS011;26722;43.212;27.932;2022-12-18T06:26:21;26.92;;;12.32;;
40993;SDS011;26722;43.212;27.932;2022-12-18T06:28:47;29.10;;;14.07;;
40993;SDS011;26722;43.212;27.932;2022-12-18T06:31:12;25.10;;;11.68;;
40993;SDS011;26722;43.212;27.932;2022-12-18T06:33:38;28.95;;;12.32;;
40993;SDS011;26722;43.212;27.932;2022-12-18T06:36:08;26.77;;;13.40;;
40993;SDS011;26722;43.212;27.932;2022-12-18T06:38:36;29.67;;;15.00;;
40993;SDS011;26722;43.212;27.932;2022-12-18T06:41:06;28.52;;;14.15;;
40993;SDS011;26722;43.212;27.932;2022-12-18T06:43:32;30.95;;;15.05;;
40993;SDS011;26722;43.212;27.932;2022-12-18T06:46:01;28.17;;;12.75;;
40993;SDS011;26722;43.212;27.932;2022-12-18T06:48:27;32.78;;;16.20;;
40993;SDS011;26722;43.212;27.932;2022-12-18T06:50:53;30.92;;;15.80;;
40993;SDS011;26722;43.212;27.932;2022-12-18T06:53:19;32.58;;;16.13;;
40993;SDS011;26722;43.212;27.932;2022-12-18T06:55:44;35.00;;;17.10;;
40993;SDS011;26722;43.212;27.932;2022-12-18T06:58:10;37.60;;;17.00;;
40993;SDS011;26722;43.212;27.932;2022-12-18T07:00:35;35.13;;;15.18;;
40993;SDS011;26722;43.212;27.932;2022-12-18T07:03:01;38.38;;;17.38;;
40993;SDS011;26722;43.212;27.932;2022-12-18T07:05:26;37.88;;;17.38;;
40993;SDS011;26722;43.212;27.932;2022-12-18T07:07:51;40.95;;;18.35;;
40993;SDS011;26722;43.212;27.932;2022-12-18T07:10:17;39.33;;;17.83;;
40993;SDS011;26722;43.212;27.932;2022-12-18T07:12:42;38.55;;;17.73;;
40993;SDS011;26722;43.212;27.932;2022-12-18T07:15:08;38.03;;;18.98;;
40993;SDS011;26722;43.212;27.932;2022-12-18T07:17:34;39.00;;;18.55;;
40993;SDS011;26722;43.212;27.932;2022-12-18T07:19:59;43.17;;;19.02;;
40993;SDS011;26722;43.212;27.932;2022-12-18T07:22:25;41.33;;;19.08;;
40993;SDS011;26722;43.212;27.932;2022-12-18T07:24:51;41.95;;;19.33;;
40993;SDS011;26722;43.212;27.932;2022-12-18T07:27:16;42.33;;;19.50;;
40993;SDS011;26722;43.212;27.932;2022-12-18T07:29:42;44.03;;;20.20;;
40993;SDS011;26722;43.212;27.932;2022-12-18T07:32:07;35.53;;;17.33;;
40993;SDS011;26722;43.212;27.932;2022-12-18T07:34:33;40.08;;;19.15;;
40993;SDS011;26722;43.212;27.932;2022-12-18T07:36:59;43.03;;;19.90;;
40993;SDS011;26722;43.212;27.932;2022-12-18T07:39:24;41.50;;;19.42;;
40993;SDS011;26722;43.212;27.932;2022-12-18T07:41:50;39.92;;;18.02;;
40993;SDS011;26722;43.212;27.932;2022-12-18T07:44:33;37.92;;;16.90;;
40993;SDS011;26722;43.212;27.932;2022-12-18T07:46:59;48.30;;;21.92;;
40993;SDS011;26722;43.212;27.932;2022-12-18T07:49:24;37.67;;;17.20;;
40993;SDS011;26722;43.212;27.932;2022-12-18T07:51:50;40.40;;;19.58;;
40993;SDS011;26722;43.212;27.932;2022-12-18T07:54:15;46.22;;;21.73;;
40993;SDS011;26722;43.212;27.932;2022-12-18T07:56:41;41.97;;;17.20;;
40993;SDS011;26722;43.212;27.932;2022-12-18T07:59:06;45.40;;;21.25;;
40993;SDS011;26722;43.212;27.932;2022-12-18T08:01:33;38.90;;;17.08;;
40993;SDS011;26722;43.212;27.932;2022-12-18T08:03:59;45.22;;;17.90;;
40993;SDS011;26722;43.212;27.932;2022-12-18T08:06:24;44.72;;;20.42;;
40993;SDS011;26722;43.212;27.932;2022-12-18T08:08:54;46.88;;;19.65;;
40993;SDS011;26722;43.212;27.932;2022-12-18T08:11:20;37.95;;;14.93;;
40993;SDS011;26722;43.212;27.932;2022-12-18T08:13:46;41.30;;;17.33;;
40993;SDS011;26722;43.212;27.932;2022-12-18T08:16:12;46.88;;;19.95;;
40993;SDS011;26722;43.212;27.932;2022-12-18T08:18:37;43.55;;;18.73;;
40993;SDS011;26722;43.212;27.932;2022-12-18T08:21:09;42.53;;;17.35;;
40993;SDS011;26722;43.212;27.932;2022-12-18T08:23:36;35.65;;;16.42;;
40993;SDS011;26722;43.212;27.932;2022-12-18T08:26:02;42.15;;;20.35;;
40993;SDS011;26722;43.212;27.932;2022-12-18T08:28:27;42.33;;;16.95;;
40993;SDS011;26722;43.212;27.932;2022-12-18T08:30:53;46.90;;;21.60;;
40993;SDS011;26722;43.212;27.932;2022-12-18T08:33:18;49.92;;;21.08;;
40993;SDS011;26722;43.212;27.932;2022-12-18T08:35:44;43.30;;;16.13;;
40993;SDS011;26722;43.212;27.932;2022-12-18T08:38:09;50.72;;;20.45;;
40993;SDS011;26722;43.212;27.932;2022-12-18T08:40:34;45.92;;;21.73;;
40993;SDS011;26722;43.212;27.932;2022-12-18T08:43:00;44.55;;;19.77;;
40993;SDS011;26722;43.212;27.932;2022-12-18T08:45:44;46.08;;;20.77;;
40993;SDS011;26722;43.212;27.932;2022-12-18T08:48:09;49.45;;;20.90;;
40993;SDS011;26722;43.212;27.932;2022-12-18T08:50:35;43.72;;;16.90;;
40993;SDS011;26722;43.212;27.932;2022-12-18T08:53:00;47.83;;;22.08;;
40993;SDS011;26722;43.212;27.932;2022-12-18T08:55:26;50.78;;;22.40;;
40993;SDS011;26722;43.212;27.932;2022-12-18T08:57:51;44.67;;;20.40;;
40993;SDS011;26722;43.212;27.932;2022-12-18T09:00:17;46.00;;;20.08;;
40993;SDS011;26722;43.212;27.932;2022-12-18T09:02:42;42.72;;;19.88;;
40993;SDS011;26722;43.212;27.932;2022-12-18T09:05:08;47.03;;;20.13;;
40993;SDS011;26722;43.212;27.932;2022-12-18T09:07:33;51.40;;;22.23;;
40993;SDS011;26722;43.212;27.932;2022-12-18T09:09:59;49.90;;;21.02;;
40993;SDS011;26722;43.212;27.932;2022-12-18T09:12:25;48.67;;;21.63;;
40993;SDS011;26722;43.212;27.932;2022-12-18T09:14:50;47.00;;;22.05;;
40993;SDS011;26722;43.212;27.932;2022-12-18T09:17:16;45.10;;;21.30;;
40993;SDS011;26722;43.212;27.932;2022-12-18T09:19:41;42.80;;;19.98;;
40993;SDS011;26722;43.212;27.932;2022-12-18T09:22:07;49.10;;;21.13;;
40993;SDS011;26722;43.212;27.932;2022-12-18T09:24:32;49.10;;;21.02;;
40993;SDS011;26722;43.212;27.932;2022-12-18T09:26:57;37.63;;;16.27;;
40993;SDS011;26722;43.212;27.932;2022-12-18T09:29:23;43.83;;;19.25;;
40993;SDS011;26722;43.212;27.932;2022-12-18T09:31:49;45.90;;;20.25;;
40993;SDS011;26722;43.212;27.932;2022-12-18T09:34:15;51.20;;;22.13;;
40993;SDS011;26722;43.212;27.932;2022-12-18T09:36:41;48.08;;;20.13;;
40993;SDS011;26722;43.212;27.932;2022-12-18T09:39:07;45.42;;;22.23;;
40993;SDS011;26722;43.212;27.932;2022-12-18T09:41:52;47.85;;;21.42;;
40993;SDS011;26722;43.212;27.932;2022-12-18T09:44:31;45.78;;;19.50;;
40993;SDS011;26722;43.212;27.932;2022-12-18T09:49:56;50.80;;;21.48;;
40993;SDS011;26722;43.212;27.932;2022-12-18T09:55:00;47.10;;;20.73;;
40993;SDS011;26722;43.212;27.932;2022-12-18T09:57:30;50.80;;;20.50;;
40993;SDS011;26722;43.212;27.932;2022-12-18T09:59:59;47.15;;;19.80;;
40993;SDS011;26722;43.212;27.932;2022-12-18T10:02:32;39.97;;;17.98;;
40993;SDS011;26722;43.212;27.932;2022-12-18T10:10:12;45.63;;;20.08;;
40993;SDS011;26722;43.212;27.932;2022-12-18T10:15:24;47.60;;;21.50;;
40993;SDS011;26722;43.212;27.932;2022-12-18T10:18:01;53.22;;;21.83;;
40993;SDS011;26722;43.212;27.932;2022-12-18T10:25:27;39.45;;;16.08;;
40993;SDS011;26722;43.212;27.932;2022-12-18T10:28:10;50.95;;;23.00;;
40993;SDS011;26722;43.212;27.932;2022-12-18T10:30:38;49.08;;;22.35;;
40993;SDS011;26722;43.212;27.932;2022-12-18T10:33:05;50.25;;;23.35;;
40993;SDS011;26722;43.212;27.932;2022-12-18T10:35:30;49.97;;;23.65;;
40993;SDS011;26722;43.212;27.932;2022-12-18T10:40:24;48.50;;;22.70;;
40993;SDS011;26722;43.212;27.932;2022-12-18T10:43:10;46.35;;;22.05;;
40993;SDS011;26722;43.212;27.932;2022-12-18T10:45:37;55.63;;;23.83;;
40993;SDS011;26722;43.212;27.932;2022-12-18T10:48:03;48.15;;;22.90;;
40993;SDS011;26722;43.212;27.932;2022-12-18T10:50:30;52.42;;;23.65;;
40993;SDS011;26722;43.212;27.932;2022-12-18T10:53:01;48.00;;;21.63;;
40993;SDS011;26722;43.212;27.932;2022-12-18T10:55:32;47.58;;;22.67;;
40993;SDS011;26722;43.212;27.932;2022-12-18T11:03:34;52.22;;;23.77;;
40993;SDS011;26722;43.212;27.932;2022-12-18T11:06:12;43.00;;;18.33;;
40993;SDS011;26722;43.212;27.932;2022-12-18T11:08:43;52.53;;;22.85;;
40993;SDS011;26722;43.212;27.932;2022-12-18T11:11:23;56.47;;;25.88;;
40993;SDS011;26722;43.212;27.932;2022-12-18T11:14:05;44.58;;;19.35;;
40993;SDS011;26722;43.212;27.932;2022-12-18T11:16:43;42.15;;;18.00;;
40993;SDS011;26722;43.212;27.932;2022-12-18T11:19:13;55.15;;;24.42;;
40993;SDS011;26722;43.212;27.932;2022-12-18T11:21:53;50.75;;;21.55;;
40993;SDS011;26722;43.212;27.932;2022-12-18T11:24:37;55.97;;;24.60;;
40993;SDS011;26722;43.212;27.932;2022-12-18T11:27:03;56.17;;;23.05;;
40993;SDS011;26722;43.212;27.932;2022-12-18T11:29:34;57.97;;;23.00;;
40993;SDS011;26722;43.212;27.932;2022-12-18T11:35:00;62.40;;;24.17;;
40993;SDS011;26722;43.212;27.932;2022-12-18T11:38:29;57.45;;;22.35;;
40993;SDS011;26722;43.212;27.932;2022-12-18T11:43:44;50.88;;;20.70;;
40993;SDS011;26722;43.212;27.932;2022-12-18T11:46:17;60.63;;;24.92;;
40993;SDS011;26722;43.212;27.932;2022-12-18T11:48:51;58.05;;;25.73;;
40993;SDS011;26722;43.212;27.932;2022-12-18T11:51:33;62.95;;;26.77;;
40993;SDS011;26722;43.212;27.932;2022-12-18T11:54:13;50.47;;;21.25;;
40993;SDS011;26722;43.212;27.932;2022-12-18T11:56:44;53.65;;;22.30;;
40993;SDS011;26722;43.212;27.932;2022-12-18T11:59:17;59.40;;;23.55;;
40993;SDS011;26722;43.212;27.932;2022-12-18T12:02:15;47.70;;;20.17;;
40993;SDS011;26722;43.212;27.932;2022-12-18T12:04:56;50.17;;;22.88;;
40993;SDS011;26722;43.212;27.932;2022-12-18T12:07:42;46.92;;;20.83;;
40993;SDS011;26722;43.212;27.932;2022-12-18T12:32:07;31.52;;;15.60;;
40993;SDS011;26722;43.212;27.932;2022-12-18T12:39:54;29.23;;;13.63;;
40993;SDS011;26722;43.212;27.932;2022-12-18T12:42:25;29.80;;;13.95;;
40993;SDS011;26722;43.212;27.932;2022-12-18T12:45:19;24.45;;;12.52;;
40993;SDS011;26722;43.212;27.932;2022-12-18T12:47:51;22.67;;;11.68;;
40993;SDS011;26722;43.212;27.932;2022-12-18T12:50:19;16.92;;;10.18;;
40993;SDS011;26722;43.212;27.932;2022-12-18T12:55:21;12.88;;;6.05;;
40993;SDS011;26722;43.212;27.932;2022-12-18T12:58:00;16.30;;;8.13;;
40993;SDS011;26722;43.212;27.932;2022-12-18T13:00:41;11.00;;;6.78;;
40993;SDS011;26722;43.212;27.932;2022-12-18T13:09:02;12.60;;;6.55;;
40993;SDS011;26722;43.212;27.932;2022-12-18T13:11:34;14.40;;;8.13;;
40993;SDS011;26722;43.212;27.932;2022-12-18T13:14:30;13.88;;;7.93;;
40993;SDS011;26722;43.212;27.932;2022-12-18T13:20:04;15.75;;;8.88;;
40993;SDS011;26722;43.212;27.932;2022-12-18T13:22:36;17.30;;;9.30;;
40993;SDS011;26722;43.212;27.932;2022-12-18T13:25:29;14.50;;;7.55;;
40993;SDS011;26722;43.212;27.932;2022-12-18T13:28:02;16.48;;;8.70;;
40993;SDS011;26722;43.212;27.932;2022-12-18T13:43:46;19.23;;;8.52;;
40993;SDS011;26722;43.212;27.932;2022-12-18T13:46:20;18.75;;;8.88;;
40993;SDS011;26722;43.212;27.932;2022-12-18T13:48:55;14.60;;;8.07;;
40993;SDS011;26722;43.212;27.932;2022-12-18T13:51:27;17.67;;;9.00;;
40993;SDS011;26722;43.212;27.932;2022-12-18T13:56:31;17.90;;;9.00;;
40993;SDS011;26722;43.212;27.932;2022-12-18T14:04:22;16.10;;;7.63;;
40993;SDS011;26722;43.212;27.932;2022-12-18T14:06:52;18.20;;;8.45;;
40993;SDS011;26722;43.212;27.932;2022-12-18T14:09:23;16.23;;;8.35;;
40993;SDS011;26722;43.212;27.932;2022-12-18T14:11:51;21.50;;;8.82;;
40993;SDS011;26722;43.212;27.932;2022-12-18T14:14:38;15.88;;;8.30;;
40993;SDS011;26722;43.212;27.932;2022-12-18T14:17:09;19.90;;;8.90;;
40993;SDS011;26722;43.212;27.932;2022-12-18T14:19:36;16.75;;;8.63;;
40993;SDS011;26722;43.212;27.932;2022-12-18T14:22:02;17.10;;;8.45;;
40993;SDS011;26722;43.212;27.932;2022-12-18T14:24:28;18.55;;;9.27;;
40993;SDS011;26722;43.212;27.932;2022-12-18T14:26:57;22.73;;;9.18;;
40993;SDS011;26722;43.212;27.932;2022-12-18T14:29:48;20.67;;;9.75;;
40993;SDS011;26722;43.212;27.932;2022-12-18T14:32:15;16.65;;;8.98;;
40993;SDS011;26722;43.212;27.932;2022-12-18T14:34:44;15.77;;;9.30;;
40993;SDS011;26722;43.212;27.932;2022-12-18T14:37:10;24.33;;;10.82;;
40993;SDS011;26722;43.212;27.932;2022-12-18T14:39:38;16.70;;;9.13;;
40993;SDS011;26722;43.212;27.932;2022-12-18T14:42:03;17.00;;;9.18;;
40993;SDS011;26722;43.212;27.932;2022-12-18T14:44:29;18.88;;;10.25;;
40993;SDS011;26722;43.212;27.932;2022-12-18T14:46:55;16.60;;;9.88;;
40993;SDS011;26722;43.212;27.932;2022-12-18T14:49:23;17.30;;;10.38;;
40993;SDS011;26722;43.212;27.932;2022-12-18T14:51:55;17.73;;;10.70;;
40993;SDS011;26722;43.212;27.932;2022-12-18T14:54:24;21.38;;;10.48;;
40993;SDS011;26722;43.212;27.932;2022-12-18T14:56:56;18.02;;;9.23;;
40993;SDS011;26722;43.212;27.932;2022-12-18T15:02:09;19.17;;;9.00;;
40993;SDS011;26722;43.212;27.932;2022-12-18T15:04:37;20.25;;;10.02;;
40993;SDS011;26722;43.212;27.932;2022-12-18T15:07:16;22.40;;;9.98;;
40993;SDS011;26722;43.212;27.932;2022-12-18T15:10:00;20.65;;;10.07;;
40993;SDS011;26722;43.212;27.932;2022-12-18T15:12:32;20.00;;;10.50;;
40993;SDS011;26722;43.212;27.932;2022-12-18T15:15:00;21.45;;;10.60;;
40993;SDS011;26722;43.212;27.932;2022-12-18T15:17:27;19.60;;;9.85;;
40993;SDS011;26722;43.212;27.932;2022-12-18T15:20:03;22.00;;;10.57;;
40993;SDS011;26722;43.212;27.932;2022-12-18T15:22:35;20.38;;;10.73;;
40993;SDS011;26722;43.212;27.932;2022-12-18T15:25:02;19.77;;;9.70;;
40993;SDS011;26722;43.212;27.932;2022-12-18T15:27:45;20.88;;;10.23;;
40993;SDS011;26722;43.212;27.932;2022-12-18T15:32:43;21.80;;;10.73;;
40993;SDS011;26722;43.212;27.932;2022-12-18T15:37:48;21.73;;;10.32;;
40993;SDS011;26722;43.212;27.932;2022-12-18T15:40:18;23.83;;;11.75;;
40993;SDS011;26722;43.212;27.932;2022-12-18T15:42:45;25.23;;;11.02;;
40993;SDS011;26722;43.212;27.932;2022-12-18T15:45:31;22.70;;;11.45;;
40993;SDS011;26722;43.212;27.932;2022-12-18T15:47:57;23.55;;;11.23;;
40993;SDS011;26722;43.212;27.932;2022-12-18T15:50:22;21.33;;;11.85;;
40993;SDS011;26722;43.212;27.932;2022-12-18T15:52:49;23.25;;;11.60;;
40993;SDS011;26722;43.212;27.932;2022-12-18T15:55:20;24.42;;;12.10;;
40993;SDS011;26722;43.212;27.932;2022-12-18T15:58:06;24.92;;;12.25;;
40993;SDS011;26722;43.212;27.932;2022-12-18T16:00:32;20.40;;;10.77;;
40993;SDS011;26722;43.212;27.932;2022-12-18T16:03:00;19.40;;;10.27;;
40993;SDS011;26722;43.212;27.932;2022-12-18T16:05:25;22.65;;;11.27;;
40993;SDS011;26722;43.212;27.932;2022-12-18T16:07:52;21.45;;;11.00;;
40993;SDS011;26722;43.212;27.932;2022-12-18T16:10:17;24.15;;;11.40;;
40993;SDS011;26722;43.212;27.932;2022-12-18T16:12:43;24.65;;;11.63;;
40993;SDS011;26722;43.212;27.932;2022-12-18T16:15:09;22.40;;;10.70;;
40993;SDS011;26722;43.212;27.932;2022-12-18T16:17:38;24.33;;;11.43;;
40993;SDS011;26722;43.212;27.932;2022-12-18T16:20:04;23.15;;;11.80;;
40993;SDS011;26722;43.212;27.932;2022-12-18T16:22:30;24.08;;;12.30;;
40993;SDS011;26722;43.212;27.932;2022-12-18T16:24:56;26.23;;;12.55;;
40993;SDS011;26722;43.212;27.932;2022-12-18T16:27:23;22.52;;;11.82;;
40993;SDS011;26722;43.212;27.932;2022-12-18T16:29:49;23.92;;;12.32;;
40993;SDS011;26722;43.212;27.932;2022-12-18T16:32:16;23.02;;;12.10;;
40993;SDS011;26722;43.212;27.932;2022-12-18T16:34:44;25.90;;;12.25;;
40993;SDS011;26722;43.212;27.932;2022-12-18T16:37:11;25.33;;;12.27;;
40993;SDS011;26722;43.212;27.932;2022-12-18T16:39:38;29.50;;;13.55;;
40993;SDS011;26722;43.212;27.932;2022-12-18T16:42:14;29.80;;;12.50;;
40993;SDS011;26722;43.212;27.932;2022-12-18T16:44:43;24.35;;;11.57;;
40993;SDS011;26722;43.212;27.932;2022-12-18T16:47:11;22.63;;;11.43;;
40993;SDS011;26722;43.212;27.932;2022-12-18T16:49:37;24.23;;;11.77;;
40993;SDS011;26722;43.212;27.932;2022-12-18T16:52:03;20.95;;;10.65;;